• Join FlightAware (Why Join?)
  • Login
  • US Flag 
04:42AM EDT


 

Airport Tracker/Info


-or-


 

Live Flight TrackerFlight Track Log ✈ MTN8308 ✈ 09-May-2013 ✈ KEWR - KBWI

Flight Track Log - Related Links

Times and Time Zones

All times are in EDT time to prevent confusion due to time zone crossing. See the MTN8308 flight status page for this flight to view local times or setup timezone preferences in your user account.

Time Position Orientation Groundspeed Altitude Reporting Facility
EDT Latitude Longitude Course Direction KTS MPH feet Rate Location/Type
03:06AM 40.7167 -74.1500 270° West 106 122 1,000  Level New York TRACON
03:07AM 40.7167 -74.1833 270° West 104 120 1,800 780 Climbing New York TRACON
03:08AM 40.7167 -74.2167 270° West 103 119 2,500 720 Climbing New York TRACON
03:09AM 40.7000 -74.2500 237° Southwest 105 121 3,200 660 Climbing New York TRACON
03:10AM 40.7000 -74.2833 270° West 106 122 3,900 360 Climbing New York TRACON
03:11AM 40.6833 -74.3333 246° West 134 154 4,000  Climbing New York TRACON
03:12AM 40.6667 -74.3833 246° West 147 169 4,000  Level New York TRACON
03:13AM 40.6667 -74.4333 270° West 149 171 4,000  Level New York TRACON
03:14AM 40.6500 -74.4833 246° West 152 175 4,000  Level New York TRACON
03:16AM 40.6061 -74.5627 253° West  Level FlightAware Approximate
03:20AM 40.5833 -74.8333 252° West 157 181 4,100  Level Philadelphia TRACON
03:21AM 40.5667 -74.9000 252° West 156 180 4,100  Level Philadelphia TRACON
03:22AM 40.5667 -74.9667 270° West 155 178 4,100  Level Philadelphia TRACON
03:23AM 40.5578 -74.8860 266° West  Level FlightAware Approximate
03:23AM 40.5500 -75.0167 246° West 149 171 4,100  Level Philadelphia TRACON
03:24AM 40.5649 -74.9376 280° West  Level FlightAware Approximate
03:25AM 40.5563 -74.9913 252° West  Level FlightAware Approximate
03:25AM 40.5167 -75.0500 217° Southwest 146 168 4,100  Level Philadelphia TRACON
03:26AM 40.4833 -75.0833 217° Southwest 146 168 4,100  Level Philadelphia TRACON
03:27AM 40.4500 -75.1167 217° Southwest 147 169 4,100  Level Philadelphia TRACON
03:27AM 40.4167 -75.1500 217° Southwest 147 169 4,100  Level Philadelphia TRACON
03:28AM 40.4000 -75.1833 237° Southwest 146 168 4,100  Level Philadelphia TRACON
03:29AM 40.3667 -75.2167 217° Southwest 146 168 4,100  Level Philadelphia TRACON
03:30AM 40.3333 -75.2500 217° Southwest 145 167 4,100  Level Philadelphia TRACON
03:31AM 40.3000 -75.2833 217° Southwest 144 166 4,100  Level Philadelphia TRACON
03:32AM 40.2667 -75.3167 217° Southwest 147 169 4,100  Level Philadelphia TRACON
03:33AM 40.2333 -75.3500 217° Southwest 150 173 4,100  Level Philadelphia TRACON
03:34AM 40.2000 -75.3667 201° Southwest 150 173 4,100  Level Philadelphia TRACON
03:35AM 40.1667 -75.4000 217° Southwest 153 176 4,100  Level Philadelphia TRACON
03:36AM 40.1333 -75.4500 229° Southwest 153 176 4,100  Level Philadelphia TRACON
03:37AM 40.1000 -75.4833 217° Southwest 154 177 4,100  Level Philadelphia TRACON
03:38AM 40.0667 -75.5167 217° Southwest 153 176 4,100  Level Philadelphia TRACON
03:39AM 40.0500 -75.5500 237° Southwest 152 175 4,100  Level Philadelphia TRACON
03:40AM 40.0000 -75.5833 207° Southwest 154 177 4,100  Level Philadelphia TRACON
03:41AM 39.9667 -75.6167 217° Southwest 157 181 4,100  Level Philadelphia TRACON
03:42AM 39.9333 -75.6500 217° Southwest 157 181 4,100  Level Philadelphia TRACON
03:43AM 39.9167 -75.6833 237° Southwest 159 183 4,100  Level Philadelphia TRACON
03:44AM 39.8833 -75.7333 229° Southwest 160 184 4,100  Level Philadelphia TRACON
03:45AM 39.8667 -75.7833 247° West 155 178 4,100  Level Philadelphia TRACON
03:46AM 39.8333 -75.8333 229° Southwest 156 180 4,100 -60 Level Philadelphia TRACON
03:48AM 39.8000 -75.9000 237° Southwest 152 175 4,000 -60 Descending Potomac TRACON
03:50AM 39.7500 -75.9833 232° Southwest 160 184 4,000  Level Potomac TRACON
03:51AM 39.7333 -76.0333 247° West 154 177 4,000  Level Potomac TRACON
03:52AM 39.7167 -76.0833 247° West 158 182 4,000  Level Potomac TRACON
03:53AM 39.6833 -76.1333 229° Southwest 152 175 4,000  Level Potomac TRACON
03:54AM 39.6667 -76.1833 247° West 154 177 4,000  Level Potomac TRACON
03:55AM 39.6333 -76.2167 218° Southwest 156 180 4,000  Level Potomac TRACON
03:56AM 39.6167 -76.2667 247° West 153 176 4,000  Level Potomac TRACON
03:57AM 39.6000 -76.3167 247° West 156 180 4,000  Level Potomac TRACON
03:58AM 39.5667 -76.3667 229° Southwest 150 173 4,000  Level Potomac TRACON
03:59AM 39.5500 -76.4167 247° West 158 182 4,000  Level Potomac TRACON
04:00AM 39.5333 -76.4500 237° Southwest 152 175 4,000  Level Potomac TRACON
04:01AM 39.5000 -76.5000 229° Southwest 150 173 4,000  Level Potomac TRACON
04:02AM 39.4833 -76.5500 247° West 155 178 4,000  Level Potomac TRACON
04:03AM 39.4667 -76.6000 247° West 158 182 4,000  Level Potomac TRACON
04:04AM 39.4333 -76.6500 229° Southwest 158 182 4,000  Level Potomac TRACON
04:05AM 39.4167 -76.7000 247° West 153 176 4,000  Level Potomac TRACON
04:06AM 39.3833 -76.7333 218° Southwest 146 168 4,000  Level Potomac TRACON
04:07AM 39.3500 -76.7333 180° South 155 178 4,000  Level Potomac TRACON
04:08AM 39.3000 -76.7167 166° South 160 184 4,000  Level Potomac TRACON
04:09AM 39.2500 -76.7000 166° South 165 190 4,000  Level Potomac TRACON
04:10AM 39.2167 -76.6833 159° South 164 189 4,000  Level Potomac TRACON
04:11AM 39.1667 -76.6833 180° South 163 188 4,000 -420 Level Potomac TRACON
04:12AM 39.1167 -76.6667 165° South 166 191 3,200 -900 Descending Potomac TRACON
04:13AM 39.0833 -76.6500 159° South 166 191 2,300 -600 Descending Potomac TRACON
04:14AM 39.0333 -76.6333 165° South 167 192 2,000 -180 Descending Potomac TRACON
04:15AM 39.0333 -76.5833 90° East 169 194 2,000  Level Potomac TRACON
04:16AM 39.0667 -76.5500 38° Northeast 155 178 2,000  Level Potomac TRACON
04:17AM 39.1000 -76.5833 322° Northwest 189 217 2,000 -480 Level Potomac TRACON
04:18AM 39.1333 -76.6167 322° Northwest 165 190 1,100 -780 Descending Potomac TRACON
04:19AM 39.1667 -76.6333 339° North 157 181 500 -600 Descending Potomac TRACON
04:21AM 39.1667 -76.6667 270° West  Level FlightAware Approximate